sensor_id;sensor_type;location;lat;lon;timestamp;pressure;altitude;pressure_sealevel;temperature;humidity
76297;BME280;65104;52.994;6.552;2023-03-26T00:01:55;100524.28;;;7.08;94.53
76297;BME280;65104;52.994;6.552;2023-03-26T00:04:22;100519.25;;;7.11;94.67
76297;BME280;65104;52.994;6.552;2023-03-26T00:06:50;100529.38;;;7.06;94.99
76297;BME280;65104;52.994;6.552;2023-03-26T00:09:16;100525.19;;;7.10;94.43
76297;BME280;65104;52.994;6.552;2023-03-26T00:11:42;100523.25;;;7.01;94.38
76297;BME280;65104;52.994;6.552;2023-03-26T00:14:08;100525.69;;;6.98;94.36
76297;BME280;65104;52.994;6.552;2023-03-26T00:16:38;100525.50;;;6.91;94.19
76297;BME280;65104;52.994;6.552;2023-03-26T00:19:05;100529.66;;;6.87;94.00
76297;BME280;65104;52.994;6.552;2023-03-26T00:21:32;100528.00;;;6.89;93.43
76297;BME280;65104;52.994;6.552;2023-03-26T00:24:00;100531.41;;;6.90;93.70
76297;BME280;65104;52.994;6.552;2023-03-26T00:26:28;100536.50;;;6.88;94.24
76297;BME280;65104;52.994;6.552;2023-03-26T00:28:55;100549.31;;;6.91;93.67
76297;BME280;65104;52.994;6.552;2023-03-26T00:31:22;100539.94;;;6.90;93.53
76297;BME280;65104;52.994;6.552;2023-03-26T00:33:50;100545.91;;;6.91;93.71
76297;BME280;65104;52.994;6.552;2023-03-26T00:36:18;100534.84;;;6.90;93.16
76297;BME280;65104;52.994;6.552;2023-03-26T00:38:44;100549.44;;;6.94;92.99
76297;BME280;65104;52.994;6.552;2023-03-26T00:41:13;100546.72;;;6.90;92.89
76297;BME280;65104;52.994;6.552;2023-03-26T00:43:43;100538.31;;;6.92;93.03
76297;BME280;65104;52.994;6.552;2023-03-26T00:46:10;100539.94;;;6.90;92.52
76297;BME280;65104;52.994;6.552;2023-03-26T00:48:36;100550.16;;;6.90;92.71
76297;BME280;65104;52.994;6.552;2023-03-26T00:51:04;100544.19;;;6.90;93.02
76297;BME280;65104;52.994;6.552;2023-03-26T00:53:30;100545.91;;;6.91;93.12
76297;BME280;65104;52.994;6.552;2023-03-26T00:55:56;100540.84;;;6.92;92.77
76297;BME280;65104;52.994;6.552;2023-03-26T00:58:27;100546.72;;;6.88;93.04
76297;BME280;65104;52.994;6.552;2023-03-26T01:00:58;100539.00;;;6.87;93.21
76297;BME280;65104;52.994;6.552;2023-03-26T01:03:26;100547.56;;;6.89;93.08
76297;BME280;65104;52.994;6.552;2023-03-26T01:06:09;100547.53;;;6.87;92.39
76297;BME280;65104;52.994;6.552;2023-03-26T01:11:16;100550.78;;;6.83;92.62
76297;BME280;65104;52.994;6.552;2023-03-26T01:13:55;100545.78;;;6.86;91.56
76297;BME280;65104;52.994;6.552;2023-03-26T01:16:41;100536.31;;;6.82;91.85
76297;BME280;65104;52.994;6.552;2023-03-26T01:19:18;100547.16;;;6.75;92.12
76297;BME280;65104;52.994;6.552;2023-03-26T01:21:47;100531.81;;;6.73;92.15
76297;BME280;65104;52.994;6.552;2023-03-26T01:24:13;100534.41;;;6.75;92.32
76297;BME280;65104;52.994;6.552;2023-03-26T01:29:52;100532.78;;;6.77;91.36
76297;BME280;65104;52.994;6.552;2023-03-26T01:35:28;100529.13;;;6.69;92.32
76297;BME280;65104;52.994;6.552;2023-03-26T01:43:23;100530.44;;;6.56;92.83
76297;BME280;65104;52.994;6.552;2023-03-26T01:45:51;100520.13;;;6.52;93.29
76297;BME280;65104;52.994;6.552;2023-03-26T01:48:16;100515.00;;;6.52;93.75
76297;BME280;65104;52.994;6.552;2023-03-26T01:50:42;100519.16;;;6.48;93.24
76297;BME280;65104;52.994;6.552;2023-03-26T01:53:09;100521.00;;;6.54;92.87
76297;BME280;65104;52.994;6.552;2023-03-26T01:56:04;100514.91;;;6.49;93.68
76297;BME280;65104;52.994;6.552;2023-03-26T01:58:44;100508.94;;;6.48;93.66
76297;BME280;65104;52.994;6.552;2023-03-26T02:04:03;100507.69;;;6.35;94.05
76297;BME280;65104;52.994;6.552;2023-03-26T02:09:06;100507.28;;;6.22;94.32
76297;BME280;65104;52.994;6.552;2023-03-26T02:11:36;100514.72;;;6.14;94.50
76297;BME280;65104;52.994;6.552;2023-03-26T02:14:06;100517.91;;;6.07;94.81
76297;BME280;65104;52.994;6.552;2023-03-26T02:16:34;100513.63;;;6.06;94.20
76297;BME280;65104;52.994;6.552;2023-03-26T02:19:00;100521.25;;;6.06;94.75
76297;BME280;65104;52.994;6.552;2023-03-26T02:21:26;100516.22;;;6.08;95.32
76297;BME280;65104;52.994;6.552;2023-03-26T02:23:55;100511.13;;;6.08;95.03
76297;BME280;65104;52.994;6.552;2023-03-26T02:26:29;100506.78;;;6.05;94.47
76297;BME280;65104;52.994;6.552;2023-03-26T02:28:55;100514.47;;;6.07;94.98
76297;BME280;65104;52.994;6.552;2023-03-26T02:31:21;100511.19;;;6.11;94.17
76297;BME280;65104;52.994;6.552;2023-03-26T02:33:51;100500.06;;;6.07;94.00
76297;BME280;65104;52.994;6.552;2023-03-26T02:36:16;100497.56;;;6.10;94.05
76297;BME280;65104;52.994;6.552;2023-03-26T02:38:43;100501.69;;;6.05;95.00
76297;BME280;65104;52.994;6.552;2023-03-26T02:41:09;100500.81;;;6.05;94.28
76297;BME280;65104;52.994;6.552;2023-03-26T02:43:34;100497.56;;;6.10;93.97
76297;BME280;65104;52.994;6.552;2023-03-26T02:45:59;100492.47;;;6.10;95.01
76297;BME280;65104;52.994;6.552;2023-03-26T02:48:25;100493.41;;;6.12;94.86
76297;BME280;65104;52.994;6.552;2023-03-26T02:50:51;100484.84;;;6.10;95.43
76297;BME280;65104;52.994;6.552;2023-03-26T02:53:19;100482.09;;;6.04;94.94
76297;BME280;65104;52.994;6.552;2023-03-26T02:55:46;100484.66;;;6.04;94.76
76297;BME280;65104;52.994;6.552;2023-03-26T02:58:11;100479.44;;;6.01;94.89
76297;BME280;65104;52.994;6.552;2023-03-26T03:00:44;100481.13;;;5.99;95.50
76297;BME280;65104;52.994;6.552;2023-03-26T03:03:11;100479.44;;;6.01;95.59
76297;BME280;65104;52.994;6.552;2023-03-26T03:05:36;100470.81;;;5.96;95.29
76297;BME280;65104;52.994;6.552;2023-03-26T03:08:03;100467.22;;;5.91;95.59
76297;BME280;65104;52.994;6.552;2023-03-26T03:10:30;100457.69;;;5.85;95.30
76297;BME280;65104;52.994;6.552;2023-03-26T03:12:57;100454.81;;;5.75;96.47
76297;BME280;65104;52.994;6.552;2023-03-26T03:15:23;100458.09;;;5.71;96.63
76297;BME280;65104;52.994;6.552;2023-03-26T03:17:48;100460.28;;;5.60;96.99
76297;BME280;65104;52.994;6.552;2023-03-26T03:20:15;100461.59;;;5.49;96.41
76297;BME280;65104;52.994;6.552;2023-03-26T03:22:41;100471.66;;;5.44;97.42
76297;BME280;65104;52.994;6.552;2023-03-26T03:25:07;100463.59;;;5.32;97.20
76297;BME280;65104;52.994;6.552;2023-03-26T03:27:42;100456.38;;;5.19;97.70
76297;BME280;65104;52.994;6.552;2023-03-26T03:30:08;100455.94;;;5.07;97.71
76297;BME280;65104;52.994;6.552;2023-03-26T03:32:35;100464.00;;;4.95;97.72
76297;BME280;65104;52.994;6.552;2023-03-26T03:35:00;100464.56;;;4.86;98.65
76297;BME280;65104;52.994;6.552;2023-03-26T03:37:25;100453.13;;;4.75;99.28
76297;BME280;65104;52.994;6.552;2023-03-26T03:39:51;100448.00;;;4.74;99.15
76297;BME280;65104;52.994;6.552;2023-03-26T03:42:17;100446.97;;;4.69;98.53
76297;BME280;65104;52.994;6.552;2023-03-26T03:44:42;100438.13;;;4.59;99.13
76297;BME280;65104;52.994;6.552;2023-03-26T03:47:07;100435.25;;;4.50;99.41
76297;BME280;65104;52.994;6.552;2023-03-26T03:49:35;100440.25;;;4.47;100.00
76297;BME280;65104;52.994;6.552;2023-03-26T03:52:00;100442.75;;;4.45;99.88
76297;BME280;65104;52.994;6.552;2023-03-26T03:54:25;100441.75;;;4.42;99.49
76297;BME280;65104;52.994;6.552;2023-03-26T03:56:52;100441.81;;;4.43;100.00
76297;BME280;65104;52.994;6.552;2023-03-26T03:59:18;100452.72;;;4.41;100.00
76297;BME280;65104;52.994;6.552;2023-03-26T04:01:43;100447.56;;;4.39;100.00
76297;BME280;65104;52.994;6.552;2023-03-26T04:04:11;100444.34;;;4.43;100.00
76297;BME280;65104;52.994;6.552;2023-03-26T04:06:36;100447.91;;;4.48;100.00
76297;BME280;65104;52.994;6.552;2023-03-26T04:09:01;100445.44;;;4.50;100.00
76297;BME280;65104;52.994;6.552;2023-03-26T04:11:27;100444.69;;;4.52;100.00
76297;BME280;65104;52.994;6.552;2023-03-26T04:13:52;100451.50;;;4.53;100.00
76297;BME280;65104;52.994;6.552;2023-03-26T04:16:17;100442.41;;;4.60;100.00
76297;BME280;65104;52.994;6.552;2023-03-26T04:18:43;100440.81;;;4.62;100.00
76297;BME280;65104;52.994;6.552;2023-03-26T04:21:11;100434.44;;;4.75;100.00
76297;BME280;65104;52.994;6.552;2023-03-26T04:23:40;100435.66;;;4.84;100.00
76297;BME280;65104;52.994;6.552;2023-03-26T04:26:09;100434.16;;;4.89;100.00
76297;BME280;65104;52.994;6.552;2023-03-26T04:28:52;100436.91;;;4.96;100.00
76297;BME280;65104;52.994;6.552;2023-03-26T04:31:22;100438.69;;;4.98;100.00
76297;BME280;65104;52.994;6.552;2023-03-26T04:33:50;100436.94;;;4.97;100.00
76297;BME280;65104;52.994;6.552;2023-03-26T04:36:24;100443.59;;;4.94;100.00
76297;BME280;65104;52.994;6.552;2023-03-26T04:38:54;100436.69;;;4.89;100.00
76297;BME280;65104;52.994;6.552;2023-03-26T04:41:20;100436.75;;;4.91;100.00
76297;BME280;65104;52.994;6.552;2023-03-26T04:43:47;100441.72;;;4.88;100.00
76297;BME280;65104;52.994;6.552;2023-03-26T04:46:16;100438.31;;;4.87;100.00
76297;BME280;65104;52.994;6.552;2023-03-26T04:48:51;100433.91;;;4.83;100.00
76297;BME280;65104;52.994;6.552;2023-03-26T04:51:19;100438.16;;;4.83;100.00
76297;BME280;65104;52.994;6.552;2023-03-26T04:53:57;100432.34;;;4.87;100.00
76297;BME280;65104;52.994;6.552;2023-03-26T04:56:43;100433.34;;;4.90;100.00
76297;BME280;65104;52.994;6.552;2023-03-26T04:59:15;100434.03;;;4.86;100.00
76297;BME280;65104;52.994;6.552;2023-03-26T05:01:42;100435.81;;;4.89;100.00
76297;BME280;65104;52.994;6.552;2023-03-26T05:04:12;100431.69;;;4.93;100.00
76297;BME280;65104;52.994;6.552;2023-03-26T05:06:42;100444.25;;;4.88;100.00
76297;BME280;65104;52.994;6.552;2023-03-26T05:09:07;100441.97;;;4.96;100.00
76297;BME280;65104;52.994;6.552;2023-03-26T05:11:35;100437.69;;;4.95;100.00
76297;BME280;65104;52.994;6.552;2023-03-26T05:14:00;100437.81;;;4.98;100.00
76297;BME280;65104;52.994;6.552;2023-03-26T05:16:26;100432.00;;;5.02;100.00
76297;BME280;65104;52.994;6.552;2023-03-26T05:18:52;100430.19;;;4.98;100.00
76297;BME280;65104;52.994;6.552;2023-03-26T05:21:18;100431.81;;;4.96;100.00
76297;BME280;65104;52.994;6.552;2023-03-26T05:23:43;100426.72;;;4.96;100.00
76297;BME280;65104;52.994;6.552;2023-03-26T05:26:09;100434.56;;;5.02;100.00
76297;BME280;65104;52.994;6.552;2023-03-26T05:28:35;100427.97;;;5.07;100.00
76297;BME280;65104;52.994;6.552;2023-03-26T05:31:01;100435.41;;;5.01;100.00
76297;BME280;65104;52.994;6.552;2023-03-26T05:33:27;100431.19;;;5.03;100.00
76297;BME280;65104;52.994;6.552;2023-03-26T05:36:04;100426.16;;;5.04;100.00
76297;BME280;65104;52.994;6.552;2023-03-26T05:38:29;100427.22;;;5.09;100.00
76297;BME280;65104;52.994;6.552;2023-03-26T05:41:00;100427.16;;;5.08;100.00
76297;BME280;65104;52.994;6.552;2023-03-26T05:43:26;100424.59;;;5.08;100.00
76297;BME280;65104;52.994;6.552;2023-03-26T05:45:52;100422.13;;;5.09;100.00
76297;BME280;65104;52.994;6.552;2023-03-26T05:48:17;100423.78;;;5.09;100.00
76297;BME280;65104;52.994;6.552;2023-03-26T05:50:43;100423.00;;;5.11;100.00
76297;BME280;65104;52.994;6.552;2023-03-26T05:53:09;100420.75;;;5.19;100.00
76297;BME280;65104;52.994;6.552;2023-03-26T05:55:34;100419.25;;;5.25;100.00
76297;BME280;65104;52.994;6.552;2023-03-26T05:57:59;100422.88;;;5.32;100.00
76297;BME280;65104;52.994;6.552;2023-03-26T06:00:25;100420.50;;;5.37;100.00
76297;BME280;65104;52.994;6.552;2023-03-26T06:02:52;100427.38;;;5.41;100.00
76297;BME280;65104;52.994;6.552;2023-03-26T06:05:19;100428.97;;;5.37;100.00
76297;BME280;65104;52.994;6.552;2023-03-26T06:07:44;100426.59;;;5.42;99.78
76297;BME280;65104;52.994;6.552;2023-03-26T06:10:10;100415.72;;;5.47;99.91
76297;BME280;65104;52.994;6.552;2023-03-26T06:12:36;100421.84;;;5.52;99.51
76297;BME280;65104;52.994;6.552;2023-03-26T06:15:01;100420.25;;;5.56;99.18
76297;BME280;65104;52.994;6.552;2023-03-26T06:17:26;100417.84;;;5.60;97.86
76297;BME280;65104;52.994;6.552;2023-03-26T06:19:52;100417.16;;;5.66;97.79
76297;BME280;65104;52.994;6.552;2023-03-26T06:22:18;100414.56;;;5.64;96.71
76297;BME280;65104;52.994;6.552;2023-03-26T06:24:44;100419.09;;;5.73;96.55
76297;BME280;65104;52.994;6.552;2023-03-26T06:27:10;100408.88;;;5.72;94.50
76297;BME280;65104;52.994;6.552;2023-03-26T06:29:35;100406.50;;;5.78;94.55
76297;BME280;65104;52.994;6.552;2023-03-26T06:32:00;100410.03;;;5.81;94.51
76297;BME280;65104;52.994;6.552;2023-03-26T06:34:26;100405.63;;;5.77;92.84
76297;BME280;65104;52.994;6.552;2023-03-26T06:36:51;100409.88;;;5.77;91.69
76297;BME280;65104;52.994;6.552;2023-03-26T06:39:18;100416.75;;;5.79;92.21
76297;BME280;65104;52.994;6.552;2023-03-26T06:41:44;100417.94;;;5.89;92.78
76297;BME280;65104;52.994;6.552;2023-03-26T06:44:09;100413.88;;;5.95;92.47
76297;BME280;65104;52.994;6.552;2023-03-26T06:46:35;100421.16;;;5.85;90.49
76297;BME280;65104;52.994;6.552;2023-03-26T06:49:01;100419.66;;;5.90;90.48
76297;BME280;65104;52.994;6.552;2023-03-26T06:51:26;100423.09;;;5.90;89.85
76297;BME280;65104;52.994;6.552;2023-03-26T06:53:52;100416.38;;;5.94;90.17
76297;BME280;65104;52.994;6.552;2023-03-26T06:56:17;100419.44;;;5.84;87.26
76297;BME280;65104;52.994;6.552;2023-03-26T06:58:43;100424.25;;;6.01;88.13
76297;BME280;65104;52.994;6.552;2023-03-26T07:01:08;100421.09;;;5.83;84.83
76297;BME280;65104;52.994;6.552;2023-03-26T07:03:33;100414.75;;;5.96;86.03
76297;BME280;65104;52.994;6.552;2023-03-26T07:05:59;100410.03;;;6.08;83.79
76297;BME280;65104;52.994;6.552;2023-03-26T07:08:24;100407.75;;;6.17;83.09
76297;BME280;65104;52.994;6.552;2023-03-26T07:10:50;100404.44;;;6.21;82.57
76297;BME280;65104;52.994;6.552;2023-03-26T07:13:15;100411.56;;;6.31;81.51
76297;BME280;65104;52.994;6.552;2023-03-26T07:15:40;100407.63;;;6.43;82.60
76297;BME280;65104;52.994;6.552;2023-03-26T07:18:06;100406.75;;;6.42;81.13
76297;BME280;65104;52.994;6.552;2023-03-26T07:20:31;100395.44;;;6.32;80.83
76297;BME280;65104;52.994;6.552;2023-03-26T07:22:57;100399.22;;;6.47;82.39
76297;BME280;65104;52.994;6.552;2023-03-26T07:25:23;100391.66;;;6.50;81.04
76297;BME280;65104;52.994;6.552;2023-03-26T07:30:39;100387.78;;;6.64;79.34
76297;BME280;65104;52.994;6.552;2023-03-26T07:33:14;100384.63;;;6.72;78.90
76297;BME280;65104;52.994;6.552;2023-03-26T07:36:06;100377.94;;;6.76;80.16
76297;BME280;65104;52.994;6.552;2023-03-26T07:41:51;100375.84;;;6.63;77.63
76297;BME280;65104;52.994;6.552;2023-03-26T07:44:48;100379.25;;;6.62;77.95
76297;BME280;65104;52.994;6.552;2023-03-26T07:47:26;100376.25;;;6.76;76.31
76297;BME280;65104;52.994;6.552;2023-03-26T07:49:53;100379.56;;;6.74;75.64
76297;BME280;65104;52.994;6.552;2023-03-26T07:52:20;100380.28;;;6.68;76.09
76297;BME280;65104;52.994;6.552;2023-03-26T07:54:45;100381.22;;;6.72;76.39
76297;BME280;65104;52.994;6.552;2023-03-26T07:59:50;100389.09;;;7.12;76.62
76297;BME280;65104;52.994;6.552;2023-03-26T08:02:34;100381.16;;;7.02;75.05
76297;BME280;65104;52.994;6.552;2023-03-26T08:05:25;100386.22;;;7.00;75.39
76297;BME280;65104;52.994;6.552;2023-03-26T08:13:36;100384.53;;;7.35;74.07
76297;BME280;65104;52.994;6.552;2023-03-26T08:16:13;100389.59;;;7.34;72.43
76297;BME280;65104;52.994;6.552;2023-03-26T08:21:33;100381.34;;;7.09;72.05
76297;BME280;65104;52.994;6.552;2023-03-26T08:26:59;100394.31;;;7.51;71.63
76297;BME280;65104;52.994;6.552;2023-03-26T08:31:58;100393.00;;;7.33;69.73
76297;BME280;65104;52.994;6.552;2023-03-26T08:34:24;100396.94;;;7.20;69.13
76297;BME280;65104;52.994;6.552;2023-03-26T08:36:49;100391.59;;;7.11;70.58
76297;BME280;65104;52.994;6.552;2023-03-26T08:39:15;100388.13;;;7.42;70.33
76297;BME280;65104;52.994;6.552;2023-03-26T08:50:40;100406.09;;;7.12;70.20
76297;BME280;65104;52.994;6.552;2023-03-26T09:10:14;100409.56;;;7.84;67.57
76297;BME280;65104;52.994;6.552;2023-03-26T09:15:33;100406.09;;;7.82;65.42
76297;BME280;65104;52.994;6.552;2023-03-26T09:18:37;100407.97;;;7.89;64.76
76297;BME280;65104;52.994;6.552;2023-03-26T09:33:30;100407.50;;;8.07;64.57
76297;BME280;65104;52.994;6.552;2023-03-26T09:39:08;100401.53;;;8.46;62.47
76297;BME280;65104;52.994;6.552;2023-03-26T09:47:37;100396.91;;;8.72;64.43
76297;BME280;65104;52.994;6.552;2023-03-26T09:50:34;100402.47;;;8.49;62.67
76297;BME280;65104;52.994;6.552;2023-03-26T09:53:19;100398.00;;;8.83;62.50
76297;BME280;65104;52.994;6.552;2023-03-26T09:55:53;100406.47;;;8.80;62.19
76297;BME280;65104;52.994;6.552;2023-03-26T09:58:44;100407.81;;;8.61;63.06
76297;BME280;65104;52.994;6.552;2023-03-26T10:06:38;100412.53;;;8.42;63.70
76297;BME280;65104;52.994;6.552;2023-03-26T10:12:08;100422.13;;;8.13;62.59
76297;BME280;65104;52.994;6.552;2023-03-26T10:25:12;100419.47;;;8.08;61.77
76297;BME280;65104;52.994;6.552;2023-03-26T10:28:16;100415.94;;;8.42;60.09
76297;BME280;65104;52.994;6.552;2023-03-26T10:52:20;100425.22;;;8.79;60.00
76297;BME280;65104;52.994;6.552;2023-03-26T10:55:10;100427.56;;;8.28;62.23
76297;BME280;65104;52.994;6.552;2023-03-26T11:00:33;100436.03;;;7.88;63.59
76297;BME280;65104;52.994;6.552;2023-03-26T11:08:19;100441.66;;;8.09;62.26
76297;BME280;65104;52.994;6.552;2023-03-26T11:10:55;100436.78;;;7.82;63.11
76297;BME280;65104;52.994;6.552;2023-03-26T11:13:40;100444.13;;;8.05;63.77
76297;BME280;65104;52.994;6.552;2023-03-26T11:16:41;100439.94;;;7.72;63.57
76297;BME280;65104;52.994;6.552;2023-03-26T11:24:47;100447.09;;;7.85;62.81
76297;BME280;65104;52.994;6.552;2023-03-26T11:27:29;100450.88;;;8.03;62.12
76297;BME280;65104;52.994;6.552;2023-03-26T11:30:17;100454.56;;;8.14;61.00
76297;BME280;65104;52.994;6.552;2023-03-26T11:32:55;100447.91;;;7.84;61.83
76297;BME280;65104;52.994;6.552;2023-03-26T11:35:29;100450.94;;;8.04;60.48
76297;BME280;65104;52.994;6.552;2023-03-26T11:38:05;100450.56;;;8.26;60.90
76297;BME280;65104;52.994;6.552;2023-03-26T11:40:36;100459.47;;;8.05;60.35
76297;BME280;65104;52.994;6.552;2023-03-26T11:43:06;100458.25;;;8.28;60.08
76297;BME280;65104;52.994;6.552;2023-03-26T11:45:35;100458.16;;;7.86;60.03
76297;BME280;65104;52.994;6.552;2023-03-26T11:50:52;100452.66;;;8.44;58.97
76297;BME280;65104;52.994;6.552;2023-03-26T11:53:21;100460.41;;;8.47;58.10
76297;BME280;65104;52.994;6.552;2023-03-26T11:56:04;100459.47;;;8.06;58.93
76297;BME280;65104;52.994;6.552;2023-03-26T11:58:45;100459.72;;;8.17;58.89
76297;BME280;65104;52.994;6.552;2023-03-26T12:01:17;100463.72;;;8.43;59.62
76297;BME280;65104;52.994;6.552;2023-03-26T12:04:25;100463.28;;;8.62;58.66
76297;BME280;65104;52.994;6.552;2023-03-26T12:06:56;100461.00;;;8.36;58.82
76297;BME280;65104;52.994;6.552;2023-03-26T12:09:24;100465.59;;;8.13;57.62
76297;BME280;65104;52.994;6.552;2023-03-26T12:11:53;100460.41;;;8.47;57.11
76297;BME280;65104;52.994;6.552;2023-03-26T12:14:28;100470.19;;;8.65;57.33
76297;BME280;65104;52.994;6.552;2023-03-26T12:17:00;100461.13;;;8.82;57.59
76297;BME280;65104;52.994;6.552;2023-03-26T12:19:25;100457.38;;;9.09;55.95
76297;BME280;65104;52.994;6.552;2023-03-26T12:21:53;100456.56;;;9.13;55.45
76297;BME280;65104;52.994;6.552;2023-03-26T12:24:32;100468.16;;;8.92;57.18
76297;BME280;65104;52.994;6.552;2023-03-26T12:27:00;100478.94;;;8.78;56.79
76297;BME280;65104;52.994;6.552;2023-03-26T12:29:28;100481.28;;;8.65;57.34
76297;BME280;65104;52.994;6.552;2023-03-26T12:32:16;100479.13;;;8.45;57.03
76297;BME280;65104;52.994;6.552;2023-03-26T12:34:42;100478.88;;;7.98;57.68
76297;BME280;65104;52.994;6.552;2023-03-26T12:37:33;100483.00;;;7.91;58.58
76297;BME280;65104;52.994;6.552;2023-03-26T12:40:08;100486.81;;;8.09;58.38
76297;BME280;65104;52.994;6.552;2023-03-26T12:42:51;100500.22;;;7.99;58.98
76297;BME280;65104;52.994;6.552;2023-03-26T12:45:21;100498.25;;;8.23;58.96
76297;BME280;65104;52.994;6.552;2023-03-26T12:47:47;100498.47;;;7.98;57.94
76297;BME280;65104;52.994;6.552;2023-03-26T12:50:14;100493.03;;;8.20;58.16
76297;BME280;65104;52.994;6.552;2023-03-26T12:53:05;100494.97;;;7.93;56.82
76297;BME280;65104;52.994;6.552;2023-03-26T12:58:59;100492.50;;;8.32;56.45
76297;BME280;65104;52.994;6.552;2023-03-26T13:07:02;100504.66;;;7.71;55.76
76297;BME280;65104;52.994;6.552;2023-03-26T13:09:42;100493.78;;;8.92;56.00
76297;BME280;65104;52.994;6.552;2023-03-26T13:12:29;100489.13;;;9.65;51.51
76297;BME280;65104;52.994;6.552;2023-03-26T13:18:26;100504.84;;;8.51;56.59
76297;BME280;65104;52.994;6.552;2023-03-26T13:40:00;100520.63;;;7.96;54.29
76297;BME280;65104;52.994;6.552;2023-03-26T13:42:44;100528.59;;;7.75;55.09
76297;BME280;65104;52.994;6.552;2023-03-26T13:47:53;100528.69;;;8.48;55.22
76297;BME280;65104;52.994;6.552;2023-03-26T13:50:31;100537.38;;;8.56;56.08
76297;BME280;65104;52.994;6.552;2023-03-26T13:53:05;100533.81;;;8.48;55.88
76297;BME280;65104;52.994;6.552;2023-03-26T13:55:38;100534.72;;;7.81;55.36
76297;BME280;65104;52.994;6.552;2023-03-26T13:58:13;100537.78;;;8.01;55.16
76297;BME280;65104;52.994;6.552;2023-03-26T14:09:19;100553.34;;;8.10;55.18
76297;BME280;65104;52.994;6.552;2023-03-26T14:14:35;100532.59;;;9.60;51.05
76297;BME280;65104;52.994;6.552;2023-03-26T14:17:12;100534.31;;;8.73;52.93
76297;BME280;65104;52.994;6.552;2023-03-26T14:22:44;100540.84;;;7.86;57.80
76297;BME280;65104;52.994;6.552;2023-03-26T14:25:26;100554.66;;;7.95;58.05
76297;BME280;65104;52.994;6.552;2023-03-26T14:31:03;100559.03;;;7.33;56.85
76297;BME280;65104;52.994;6.552;2023-03-26T14:41:42;100552.22;;;10.08;48.96
76297;BME280;65104;52.994;6.552;2023-03-26T14:47:08;100562.53;;;11.33;44.89
76297;BME280;65104;52.994;6.552;2023-03-26T14:52:48;100576.16;;;8.73;51.96
76297;BME280;65104;52.994;6.552;2023-03-26T15:03:52;100596.56;;;7.67;55.12
76297;BME280;65104;52.994;6.552;2023-03-26T15:13:01;100594.66;;;9.00;50.53
76297;BME280;65104;52.994;6.552;2023-03-26T15:15:48;100606.41;;;8.19;52.06
76297;BME280;65104;52.994;6.552;2023-03-26T15:27:26;100601.28;;;8.19;53.33
76297;BME280;65104;52.994;6.552;2023-03-26T15:52:06;100648.19;;;7.25;54.05
76297;BME280;65104;52.994;6.552;2023-03-26T15:54:45;100654.63;;;7.12;55.11
76297;BME280;65104;52.994;6.552;2023-03-26T16:03:04;100672.38;;;6.81;56.01
76297;BME280;65104;52.994;6.552;2023-03-26T16:08:52;100669.84;;;7.09;56.39
76297;BME280;65104;52.994;6.552;2023-03-26T16:14:37;100665.50;;;7.35;55.76
76297;BME280;65104;52.994;6.552;2023-03-26T16:17:11;100680.00;;;7.36;54.86
76297;BME280;65104;52.994;6.552;2023-03-26T16:19:49;100686.22;;;6.88;56.69
76297;BME280;65104;52.994;6.552;2023-03-26T16:22:53;100687.69;;;6.81;57.90
76297;BME280;65104;52.994;6.552;2023-03-26T16:25:29;100700.25;;;6.48;60.46
76297;BME280;65104;52.994;6.552;2023-03-26T16:28:28;100701.69;;;6.40;59.78
76297;BME280;65104;52.994;6.552;2023-03-26T16:34:18;100717.06;;;6.18;59.01
76297;BME280;65104;52.994;6.552;2023-03-26T16:36:45;100721.03;;;6.33;59.55
76297;BME280;65104;52.994;6.552;2023-03-26T16:39:18;100725.00;;;6.25;60.12
76297;BME280;65104;52.994;6.552;2023-03-26T16:52:55;100747.31;;;5.85;60.22
76297;BME280;65104;52.994;6.552;2023-03-26T17:03:45;100763.78;;;5.71;61.01
76297;BME280;65104;52.994;6.552;2023-03-26T17:14:58;100793.88;;;5.58;63.24
76297;BME280;65104;52.994;6.552;2023-03-26T17:17:42;100798.84;;;5.55;61.95
76297;BME280;65104;52.994;6.552;2023-03-26T17:20:23;100797.88;;;5.52;61.84
76297;BME280;65104;52.994;6.552;2023-03-26T17:26:04;100810.44;;;5.47;61.10
76297;BME280;65104;52.994;6.552;2023-03-26T17:34:38;100829.56;;;5.38;61.77
76297;BME280;65104;52.994;6.552;2023-03-26T17:42:31;100847.03;;;5.28;61.06
76297;BME280;65104;52.994;6.552;2023-03-26T17:44:58;100842.34;;;5.17;62.31
76297;BME280;65104;52.994;6.552;2023-03-26T17:47:35;100853.19;;;5.13;60.71
76297;BME280;65104;52.994;6.552;2023-03-26T17:50:11;100849.84;;;5.14;60.99
76297;BME280;65104;52.994;6.552;2023-03-26T17:52:54;100860.66;;;5.08;62.62
76297;BME280;65104;52.994;6.552;2023-03-26T17:55:27;100855.56;;;5.08;63.07
76297;BME280;65104;52.994;6.552;2023-03-26T17:58:06;100868.81;;;5.01;63.56
76297;BME280;65104;52.994;6.552;2023-03-26T18:00:35;100873.44;;;5.10;63.02
76297;BME280;65104;52.994;6.552;2023-03-26T18:05:33;100883.03;;;4.96;63.61
76297;BME280;65104;52.994;6.552;2023-03-26T18:08:13;100891.03;;;4.84;63.13
76297;BME280;65104;52.994;6.552;2023-03-26T18:16:14;100890.97;;;4.83;63.75
76297;BME280;65104;52.994;6.552;2023-03-26T18:18:48;100899.84;;;4.93;64.36
76297;BME280;65104;52.994;6.552;2023-03-26T18:23:48;100914.38;;;4.95;65.10
76297;BME280;65104;52.994;6.552;2023-03-26T18:26:23;100909.63;;;4.83;65.47
76297;BME280;65104;52.994;6.552;2023-03-26T18:29:12;100916.41;;;4.83;65.72
76297;BME280;65104;52.994;6.552;2023-03-26T18:31:41;100916.22;;;4.78;65.94
76297;BME280;65104;52.994;6.552;2023-03-26T18:34:17;100927.13;;;4.76;66.43
76297;BME280;65104;52.994;6.552;2023-03-26T18:39:25;100927.31;;;4.61;67.64
76297;BME280;65104;52.994;6.552;2023-03-26T18:41:51;100934.69;;;4.55;68.00
76297;BME280;65104;52.994;6.552;2023-03-26T18:44:17;100935.09;;;4.45;68.34
76297;BME280;65104;52.994;6.552;2023-03-26T18:46:43;100939.63;;;4.52;67.36
76297;BME280;65104;52.994;6.552;2023-03-26T18:49:13;100947.88;;;4.46;67.13
76297;BME280;65104;52.994;6.552;2023-03-26T18:51:40;100957.09;;;4.44;67.14